AirNav   Pilot Hours Calculator
 
 1129 users online  

TS22 WWD Farms Airport
Post, Texas, USA

GOING TO POST?


FAA INFORMATION EFFECTIVE 11 AUGUST 2022

Location

FAA Identifier: TS22
Lat/Long: 33-08-13.1600N 101-27-58.5600W
33-08.219333N 101-27.976000W
33.1369889,-101.4662667
(estimated)
Elevation: 2895 ft. / 882 m (estimated)
From city: 6 miles SW of POST, TX
Time zone: UTC -5 (UTC -6 during Standard Time)
Zip code: 79356

Airport Operations

Airport use: Private use. Permission required prior to landing
Activation date: 04/2017
Control tower: no
ARTCC: FORT WORTH CENTER
FSS: FORT WORTH FLIGHT SERVICE STATION
Attendance: 
Wind indicator: yes
Segmented circle: no

Nearby radio navigation aids

NDB name  Hdg/Dist  Freq  Var  ID
SNYDER307/37.035908ESDR ... -.. .-.

Airport Services

Runway Information

Runway 8/26

Dimensions: 2400 x 80 ft. / 732 x 24 m
Surface: turf, in fair condition
RUNWAY 8  RUNWAY 26
Traffic pattern: leftleft

Airport Ownership and Management from official FAA records

Ownership: Privately-owned
Owner: WWD FARMS
615 CR 280
POST, TX 79356
Phone 806-789-6437
SCOUTMAD69@GMAIL.COM
Manager: MARK DRAKE
12201 CR 2500
LUBBOCK, TX 79424
Phone 806-789-6437

Airport Operational Statistics

Aircraft based on the field: 2
Single engine airplanes: 2
    

Additional Remarks

FOR CD CTC FORT WORTH ARTCC AT 817-858-7584.

Instrument Procedures

There are no published instrument procedures at TS22.

Some nearby airports with instrument procedures:

F49 - City of Slaton/Larry T Neal Memorial Airport (23 nm NW)
8F3 - Crosbyton Municipal Airport (31 nm N)
KLUV - Lamesa Municipal Airport (32 nm SW)
KLBB - Lubbock Preston Smith International Airport (36 nm NW)
KBFE - Terry County Airport (37 nm W)
 
Loc | Ops | Rwys | IFR | FBO | Links
Com | Nav | Svcs | Stats | Notes

Chandler Aviation LLC
 
Aerial photo
No photo
 
Airport distance calculator
Flying to WWD Farms Airport? Find the distance to fly.

From to TS22

Sunrise and sunset
Times for 16-Aug-2022
 Local
(UTC-5)
 Zulu
(UTC)
Morning civil twilight06:4411:44
Sunrise07:1012:10
Sunset20:3001:30
Evening civil twilight20:5601:56

Current date and time
Zulu (UTC)  17-Aug-2022 02:03:48
Local (UTC-5)  16-Aug-2022 21:03:48
 
METAR
KLUV 
32nm SW 
170155Z AUTO 22006KT 10SM CLR 28/16 A3002 RMK AO2
KLBB 
36nm NW 
170153Z 16005KT 10SM FEW085 BKN250 29/09 A3004 RMK AO2 SLP115 CB DSNT N-NE LTL MOVMNT T02890094
KSNK 
37nm SE 
170155Z AUTO 13004KT 10SM CLR 31/09 A2998 RMK AO2 T03110088
TAF
KLBB 
36nm NW 
161720Z 1618/1718 21011KT P6SM FEW150 BKN250 FM170900 02010KT P6SM BKN250
NOTAMs
Click for the latest NOTAMs
NOTAMs are issued by the DoD/FAA and will open in a separate window not controlled by AirNav.

 

 
 

Would you like to see your business listed on this page?

 If your business provides an interesting product or service to pilots, flight crews, aircraft, or users of the WWD Farms Airport, you should consider listing it here.  To start the listing process, click on the button below
 
Add a business
 

Other Pages about WWD Farms Airport

Update a link
 
Copyright © AirNav, LLC. All rights reserved. Privacy Policy  Contact